createdAt,value
2023-10-29T00:01:17.362Z,4.70
2023-10-29T00:06:20.089Z,3.53
2023-10-29T00:11:23.175Z,2.22
2023-10-29T00:16:25.977Z,2.35
2023-10-29T00:21:30.900Z,3.53
2023-10-29T00:26:33.605Z,2.08
2023-10-29T00:31:36.980Z,2.28
2023-10-29T00:36:39.756Z,2.05
2023-10-29T00:41:43.805Z,5.43
2023-10-29T00:46:47.321Z,1.73
2023-10-29T00:51:50.779Z,2.50
2023-10-29T00:56:55.412Z,4.90
2023-10-29T01:01:58.231Z,4.93
2023-10-29T01:07:01.014Z,2.05
2023-10-29T01:12:03.939Z,1.92
2023-10-29T01:17:06.899Z,2.15
2023-10-29T01:22:09.884Z,2.50
2023-10-29T01:27:12.663Z,2.30
2023-10-29T01:32:15.655Z,4.10
2023-10-29T01:37:18.446Z,2.55
2023-10-29T01:42:21.077Z,2.45
2023-10-29T01:47:23.802Z,2.58
2023-10-29T01:52:26.578Z,1.92
2023-10-29T01:57:29.298Z,3.05
2023-10-29T02:02:32.068Z,2.55
2023-10-29T02:07:35.504Z,3.42
2023-10-29T02:12:38.427Z,2.20
2023-10-29T02:17:41.443Z,2.30
2023-10-29T02:22:44.310Z,1.40
2023-10-29T02:27:46.985Z,2.90
2023-10-29T02:32:49.752Z,2.58
2023-10-29T02:37:52.428Z,2.85
2023-10-29T02:42:55.554Z,3.55
2023-10-29T02:47:58.329Z,3.63
2023-10-29T02:53:01.139Z,1.70
2023-10-29T02:58:03.994Z,3.85
2023-10-29T03:03:08.477Z,2.33
2023-10-29T03:08:11.380Z,2.65
2023-10-29T03:13:14.100Z,1.27
2023-10-29T03:18:18.233Z,2.00
2023-10-29T03:23:21.308Z,2.35
2023-10-29T03:28:24.029Z,2.20
2023-10-29T03:33:26.987Z,5.00
2023-10-29T03:38:29.754Z,1.50
2023-10-29T03:43:33.425Z,2.13
2023-10-29T03:48:36.284Z,3.50
2023-10-29T03:53:39.166Z,3.17
2023-10-29T03:58:42.117Z,3.38
2023-10-29T04:03:45.434Z,2.20
2023-10-29T04:08:48.715Z,2.97
2023-10-29T04:13:54.093Z,2.75
2023-10-29T04:18:56.833Z,2.65
2023-10-29T04:23:59.634Z,2.08
2023-10-29T04:29:02.389Z,3.72
2023-10-29T04:34:05.364Z,2.50
2023-10-29T04:39:08.121Z,2.35
2023-10-29T04:44:10.795Z,3.65
2023-10-29T04:49:13.681Z,3.30
2023-10-29T04:54:16.404Z,2.03
2023-10-29T04:59:19.146Z,3.13
2023-10-29T05:04:21.990Z,3.80
2023-10-29T05:09:24.764Z,3.00
2023-10-29T05:14:27.424Z,3.45
2023-10-29T05:19:30.110Z,2.33
2023-10-29T05:24:32.783Z,1.75
2023-10-29T05:29:36.361Z,2.97
2023-10-29T05:34:40.772Z,3.65
2023-10-29T05:39:43.511Z,3.53
2023-10-29T05:44:46.250Z,2.78
2023-10-29T05:49:49.168Z,2.10
2023-10-29T05:54:52.446Z,3.92
2023-10-29T05:59:55.156Z,3.35
2023-10-29T06:04:58.477Z,3.92
2023-10-29T06:10:01.286Z,2.70
2023-10-29T06:15:04.887Z,3.25
2023-10-29T06:20:12.472Z,1.90
2023-10-29T06:25:16.425Z,4.32
2023-10-29T06:30:19.283Z,4.68
2023-10-29T06:35:21.972Z,2.80
2023-10-29T06:40:26.049Z,1.30
2023-10-29T06:50:31.207Z,3.67
2023-10-29T06:55:33.945Z,4.30
2023-10-29T07:00:36.621Z,2.70
2023-10-29T07:05:39.472Z,2.20
2023-10-29T07:10:42.653Z,3.22
2023-10-29T07:15:45.434Z,2.60
2023-10-29T07:20:48.199Z,3.97
2023-10-29T07:25:51.301Z,5.60
2023-10-29T07:30:53.992Z,5.97
2023-10-29T07:35:56.818Z,5.72
2023-10-29T07:40:59.489Z,4.30
2023-10-29T07:46:05.666Z,4.35
2023-10-29T07:51:10.974Z,4.72
2023-10-29T07:56:17.944Z,2.63
2023-10-29T08:01:21.058Z,3.13
2023-10-29T08:06:24.065Z,2.22
2023-10-29T08:11:26.839Z,3.30
2023-10-29T08:16:29.529Z,7.13
2023-10-29T08:21:32.688Z,3.45
2023-10-29T08:26:35.459Z,3.08
2023-10-29T08:31:38.559Z,4.07
2023-10-29T08:41:43.864Z,3.17
2023-10-29T08:46:47.681Z,5.55
2023-10-29T08:51:50.459Z,3.03
2023-10-29T08:56:53.280Z,3.28
2023-10-29T09:01:56.398Z,4.68
2023-10-29T09:06:59.313Z,2.72
2023-10-29T09:12:02.021Z,4.07
2023-10-29T09:17:04.803Z,3.05
2023-10-29T09:22:08.183Z,2.85
2023-10-29T09:27:11.103Z,3.60
2023-10-29T09:32:15.356Z,4.10
2023-10-29T09:37:18.008Z,2.60
2023-10-29T09:42:25.879Z,4.30
2023-10-29T09:47:29.054Z,2.45
2023-10-29T09:52:34.164Z,2.95
2023-10-29T09:57:36.872Z,4.25
2023-10-29T10:02:53.124Z,3.25
2023-10-29T10:07:59.488Z,4.72
2023-10-29T10:13:02.882Z,2.80
2023-10-29T10:18:07.002Z,2.20
2023-10-29T10:23:13.614Z,2.50
2023-10-29T10:28:16.397Z,1.95
2023-10-29T10:33:24.029Z,2.95
2023-10-29T10:38:26.927Z,3.97
2023-10-29T10:43:29.917Z,3.10
2023-10-29T10:48:36.095Z,2.65
2023-10-29T10:53:42.648Z,2.83
2023-10-29T10:58:47.038Z,2.50
2023-10-29T11:03:50.596Z,3.38
2023-10-29T11:14:17.102Z,4.07
2023-10-29T11:19:43.980Z,2.38
2023-10-29T11:25:13.042Z,3.83
2023-10-29T11:30:19.932Z,3.97
2023-10-29T11:35:23.422Z,2.67
2023-10-29T11:40:32.951Z,3.80
2023-10-29T11:45:35.790Z,2.97
2023-10-29T11:50:39.158Z,2.63
2023-10-29T11:55:46.374Z,4.15
2023-10-29T12:00:49.293Z,4.43
2023-10-29T12:05:53.261Z,2.88
2023-10-29T12:10:57.284Z,4.45
2023-10-29T12:16:02.281Z,6.35
2023-10-29T12:21:10.335Z,4.97
2023-10-29T12:26:14.743Z,5.25
2023-10-29T12:31:28.536Z,4.45
2023-10-29T12:36:31.653Z,6.28
2023-10-29T12:41:34.377Z,4.35
2023-10-29T12:46:51.165Z,5.10
2023-10-29T12:51:56.033Z,4.25
2023-10-29T12:57:03.471Z,4.47
2023-10-29T13:02:07.595Z,8.05
2023-10-29T13:07:12.934Z,5.05
2023-10-29T13:12:17.699Z,7.10
2023-10-29T13:17:21.004Z,8.30
2023-10-29T13:22:23.868Z,6.55
2023-10-29T13:27:26.859Z,5.15
2023-10-29T13:32:29.829Z,5.70
2023-10-29T13:37:32.771Z,6.22
2023-10-29T13:42:35.554Z,5.57
2023-10-29T13:47:38.302Z,4.05
2023-10-29T13:52:43.328Z,6.50
2023-10-29T13:58:05.248Z,5.43
2023-10-29T14:03:08.168Z,5.20
2023-10-29T14:08:10.983Z,5.00
2023-10-29T14:13:13.749Z,4.68
2023-10-29T14:18:16.713Z,4.63
2023-10-29T14:23:20.188Z,6.70
2023-10-29T14:28:22.860Z,4.03
2023-10-29T14:33:25.625Z,5.07
2023-10-29T14:38:28.895Z,5.30
2023-10-29T14:43:31.888Z,4.88
2023-10-29T14:48:34.761Z,6.43
2023-10-29T14:53:38.102Z,7.35
2023-10-29T14:58:40.886Z,6.70
2023-10-29T15:03:44.257Z,7.13
2023-10-29T15:08:47.339Z,8.90
2023-10-29T15:13:50.025Z,8.70
2023-10-29T15:18:52.919Z,7.40
2023-10-29T15:23:55.791Z,6.07
2023-10-29T15:28:58.779Z,6.95
2023-10-29T15:34:01.562Z,6.50
2023-10-29T15:39:06.304Z,5.97
2023-10-29T15:44:09.366Z,5.47
2023-10-29T15:49:13.389Z,5.95
2023-10-29T15:54:16.313Z,7.97
2023-10-29T15:59:21.447Z,7.55
2023-10-29T16:04:24.451Z,10.77
2023-10-29T16:09:27.323Z,8.00
2023-10-29T16:14:30.088Z,5.97
2023-10-29T16:19:33.003Z,6.03
2023-10-29T16:24:35.803Z,8.20
2023-10-29T16:29:39.318Z,6.90
2023-10-29T16:34:42.316Z,10.25
2023-10-29T16:39:45.129Z,7.10
2023-10-29T16:44:47.938Z,11.07
2023-10-29T16:49:51.439Z,6.95
2023-10-29T16:54:54.318Z,4.88
2023-10-29T16:59:57.350Z,6.07
2023-10-29T17:05:00.295Z,4.82
2023-10-29T17:10:03.092Z,6.45
2023-10-29T17:15:09.489Z,6.60
2023-10-29T17:20:12.442Z,4.90
2023-10-29T17:25:15.180Z,4.72
2023-10-29T17:30:19.530Z,4.38
2023-10-29T17:35:22.316Z,6.45
2023-10-29T17:40:25.808Z,5.13
2023-10-29T17:45:29.240Z,4.57
2023-10-29T17:50:32.876Z,4.22
2023-10-29T17:55:35.599Z,4.93
2023-10-29T18:00:38.345Z,4.22
2023-10-29T18:05:41.056Z,9.18
2023-10-29T18:10:44.119Z,5.03
2023-10-29T18:15:47.072Z,4.30
2023-10-29T18:20:50.368Z,4.53
2023-10-29T18:25:53.185Z,3.78
2023-10-29T18:30:55.987Z,4.10
2023-10-29T18:36:09.026Z,4.63
2023-10-29T18:41:14.751Z,3.95
2023-10-29T18:46:19.766Z,4.90
2023-10-29T18:51:24.967Z,3.85
2023-10-29T18:56:27.652Z,3.50
2023-10-29T19:01:30.522Z,3.15
2023-10-29T19:06:33.376Z,4.10
2023-10-29T19:11:36.960Z,6.32
2023-10-29T19:16:39.863Z,4.32
2023-10-29T19:21:42.828Z,5.40
2023-10-29T19:26:45.576Z,4.25
2023-10-29T19:31:48.322Z,4.32
2023-10-29T19:36:51.134Z,4.25
2023-10-29T19:41:53.801Z,4.50
2023-10-29T19:46:56.724Z,5.70
2023-10-29T19:51:59.476Z,3.55
2023-10-29T19:57:02.267Z,4.75
2023-10-29T20:02:04.974Z,3.90
2023-10-29T20:07:07.641Z,3.75
2023-10-29T20:12:10.354Z,4.32
2023-10-29T20:17:13.214Z,6.80
2023-10-29T20:22:16.067Z,5.35
2023-10-29T20:27:18.821Z,4.78
2023-10-29T20:32:21.710Z,5.28
2023-10-29T20:37:24.407Z,7.57
2023-10-29T20:42:27.304Z,3.55
2023-10-29T20:47:30.382Z,6.10
2023-10-29T20:52:34.026Z,4.38
2023-10-29T20:57:36.870Z,6.22
2023-10-29T21:02:39.618Z,3.65
2023-10-29T21:07:42.332Z,4.18
2023-10-29T21:12:44.925Z,3.75
2023-10-29T21:17:48.257Z,3.22
2023-10-29T21:22:50.884Z,3.80
2023-10-29T21:27:53.786Z,4.25
2023-10-29T21:32:57.420Z,5.15
2023-10-29T21:38:00.226Z,4.35
2023-10-29T21:43:03.623Z,4.97
2023-10-29T21:48:06.779Z,5.15
2023-10-29T21:53:09.612Z,3.08
2023-10-29T21:58:12.650Z,4.30
2023-10-29T22:03:15.546Z,4.75
2023-10-29T22:08:18.377Z,3.42
2023-10-29T22:13:21.032Z,3.63
2023-10-29T22:18:23.733Z,5.90
2023-10-29T22:23:26.420Z,3.78
2023-10-29T22:28:29.169Z,4.15
2023-10-29T22:33:32.777Z,4.68
2023-10-29T22:38:35.566Z,4.38
2023-10-29T22:43:38.453Z,4.10
2023-10-29T22:48:41.110Z,3.65
2023-10-29T22:53:46.039Z,2.83
2023-10-29T22:58:48.689Z,4.10
2023-10-29T23:03:51.382Z,2.38
2023-10-29T23:08:54.710Z,4.97
2023-10-29T23:13:57.352Z,4.75
2023-10-29T23:19:00.007Z,4.25
2023-10-29T23:24:02.826Z,4.13
2023-10-29T23:29:05.600Z,5.75
2023-10-29T23:34:08.284Z,5.22
2023-10-29T23:39:11.160Z,4.35
2023-10-29T23:44:13.803Z,3.97
2023-10-29T23:49:16.452Z,5.68
2023-10-29T23:54:19.223Z,4.80
2023-10-29T23:59:22.040Z,3.67
